Terminal Aerodrome Forecast
Issued by NWS Louisville, KY

Home | Current Version | Previous Version | Text Only | Print | Product List | Glossary On
Versions: 1 2 3 4 5 6 7 8 9 10 11 12 13 14 15
000
FTUS43 KLMK 252300
TAFLEX
TAF
KLEX 252323Z 2600/2624 VRB06KT P6SM BKN050
     FM260800 20012G18KT 4SM SHRA BR BKN025
     FM261500 32010KT 4SM -SHRA BR BKN008=

USA.gov is the U.S. government's official web portal to all federal, state and local government web resources and services.